Aviation Digital Data Service (ADDS)

Output produced by METARs form (0041 UTC 23 February 2018)
found at http://www.aviationweather.gov/adds/metars/
 
UGKO 230030Z 07005KT CAVOK 07/06 Q1012 R07/09//70 NOSIG
TAF UGKO 222300Z 2300/2324 09006KT CAVOK TX18/2312Z TN07/2303Z 
     PROB40 
     TEMPO 2300/2304 0500 FG VV002 
     BECMG 2304/2306 08014KT 
     BECMG 2312/2314 VRB02KT
       
UGSB 230030Z 13005KT 9999 BKN009 06/04 Q1015 R13/70D NOSIG
TAF UGSB 222300Z 2300/2324 13010KT 9999 SCT018 TX13/2311Z TN06/2300Z 
     TEMPO 2300/2308 BKN010 
     BECMG 2307/2309 26007KT 
     TEMPO 2316/2324 24017KT 5000 RA SCT010 BKN025
       
UGTB 230030Z 00000KT 6000 OVC018 03/01 Q1018 R31L/CLRD70 TEMPO 2000 BR OVC014
TAF UGTB 222300Z 2300/2324 06005KT 7000 OVC025 TX12/2312Z TN02/2302Z 
     TEMPO 2300/2306 2000 BR BKN007 OVC012 
     BECMG 2308/2310 9999 BKN035 
     TEMPO 2320/2324 3000 BR OVC015